sensor_id;sensor_type;location;lat;lon;timestamp;temperature;humidity
10848;DHT22;5477;48.806;9.154;2023-02-15T00:02:03;0.70;99.90
10848;DHT22;5477;48.806;9.154;2023-02-15T00:04:31;0.70;99.90
10848;DHT22;5477;48.806;9.154;2023-02-15T00:07:17;0.60;99.90
10848;DHT22;5477;48.806;9.154;2023-02-15T00:09:46;0.60;99.90
10848;DHT22;5477;48.806;9.154;2023-02-15T00:12:15;0.60;99.90
10848;DHT22;5477;48.806;9.154;2023-02-15T00:14:43;0.50;99.90
10848;DHT22;5477;48.806;9.154;2023-02-15T00:17:11;0.50;99.90
10848;DHT22;5477;48.806;9.154;2023-02-15T00:19:39;0.50;99.90
10848;DHT22;5477;48.806;9.154;2023-02-15T00:22:07;0.50;99.90
10848;DHT22;5477;48.806;9.154;2023-02-15T00:24:37;0.50;99.90
10848;DHT22;5477;48.806;9.154;2023-02-15T00:27:05;0.50;99.90
10848;DHT22;5477;48.806;9.154;2023-02-15T00:29:32;0.50;99.90
10848;DHT22;5477;48.806;9.154;2023-02-15T00:32:00;0.50;99.90
10848;DHT22;5477;48.806;9.154;2023-02-15T00:34:28;0.50;99.90
10848;DHT22;5477;48.806;9.154;2023-02-15T00:36:56;0.50;99.90
10848;DHT22;5477;48.806;9.154;2023-02-15T00:39:24;0.50;99.90
10848;DHT22;5477;48.806;9.154;2023-02-15T00:41:55;0.50;99.90
10848;DHT22;5477;48.806;9.154;2023-02-15T00:44:23;0.40;99.90
10848;DHT22;5477;48.806;9.154;2023-02-15T00:46:51;0.40;99.90
10848;DHT22;5477;48.806;9.154;2023-02-15T00:49:20;0.40;99.90
10848;DHT22;5477;48.806;9.154;2023-02-15T00:51:47;0.30;99.90
10848;DHT22;5477;48.806;9.154;2023-02-15T00:54:15;0.30;99.90
10848;DHT22;5477;48.806;9.154;2023-02-15T00:56:43;0.30;99.90
10848;DHT22;5477;48.806;9.154;2023-02-15T00:59:13;0.30;99.90
10848;DHT22;5477;48.806;9.154;2023-02-15T01:01:41;0.20;99.90
10848;DHT22;5477;48.806;9.154;2023-02-15T01:04:09;0.20;99.90
10848;DHT22;5477;48.806;9.154;2023-02-15T01:06:37;0.20;99.90
10848;DHT22;5477;48.806;9.154;2023-02-15T01:09:05;0.20;99.90
10848;DHT22;5477;48.806;9.154;2023-02-15T01:11:33;0.30;99.90
10848;DHT22;5477;48.806;9.154;2023-02-15T01:14:01;0.20;99.90
10848;DHT22;5477;48.806;9.154;2023-02-15T01:16:32;0.20;99.90
10848;DHT22;5477;48.806;9.154;2023-02-15T01:19:00;0.20;99.90
10848;DHT22;5477;48.806;9.154;2023-02-15T01:21:30;0.30;99.90
10848;DHT22;5477;48.806;9.154;2023-02-15T01:24:02;0.30;99.90
10848;DHT22;5477;48.806;9.154;2023-02-15T01:26:30;0.30;99.90
10848;DHT22;5477;48.806;9.154;2023-02-15T01:28:58;0.30;99.90
10848;DHT22;5477;48.806;9.154;2023-02-15T01:31:26;0.30;99.90
10848;DHT22;5477;48.806;9.154;2023-02-15T01:33:55;0.20;99.90
10848;DHT22;5477;48.806;9.154;2023-02-15T01:36:23;0.20;99.90
10848;DHT22;5477;48.806;9.154;2023-02-15T01:38:51;0.30;99.90
10848;DHT22;5477;48.806;9.154;2023-02-15T01:41:19;0.30;99.90
10848;DHT22;5477;48.806;9.154;2023-02-15T01:43:55;0.30;99.90
10848;DHT22;5477;48.806;9.154;2023-02-15T01:46:30;0.20;99.90
10848;DHT22;5477;48.806;9.154;2023-02-15T01:49:08;0.20;99.90
10848;DHT22;5477;48.806;9.154;2023-02-15T01:51:38;0.30;99.90
10848;DHT22;5477;48.806;9.154;2023-02-15T01:54:12;0.30;99.90
10848;DHT22;5477;48.806;9.154;2023-02-15T01:56:43;0.20;99.90
10848;DHT22;5477;48.806;9.154;2023-02-15T01:59:15;0.20;99.90
10848;DHT22;5477;48.806;9.154;2023-02-15T02:01:44;0.10;99.90
10848;DHT22;5477;48.806;9.154;2023-02-15T02:04:17;0.00;99.90
10848;DHT22;5477;48.806;9.154;2023-02-15T02:06:48;0.10;99.90
10848;DHT22;5477;48.806;9.154;2023-02-15T02:09:16;0.00;99.90
10848;DHT22;5477;48.806;9.154;2023-02-15T02:11:46;0.00;99.90
10848;DHT22;5477;48.806;9.154;2023-02-15T02:14:14;0.00;99.90
10848;DHT22;5477;48.806;9.154;2023-02-15T02:16:49;0.00;99.90
10848;DHT22;5477;48.806;9.154;2023-02-15T02:19:47;0.10;99.90
10848;DHT22;5477;48.806;9.154;2023-02-15T02:23:08;0.20;99.90
10848;DHT22;5477;48.806;9.154;2023-02-15T02:25:57;0.30;99.90
10848;DHT22;5477;48.806;9.154;2023-02-15T02:28:49;0.30;99.90
10848;DHT22;5477;48.806;9.154;2023-02-15T02:31:43;0.20;99.90
10848;DHT22;5477;48.806;9.154;2023-02-15T02:34:16;0.10;99.90
10848;DHT22;5477;48.806;9.154;2023-02-15T02:36:50;0.10;99.90
10848;DHT22;5477;48.806;9.154;2023-02-15T02:39:25;0.00;99.90
10848;DHT22;5477;48.806;9.154;2023-02-15T02:42:00;0.00;99.90
10848;DHT22;5477;48.806;9.154;2023-02-15T02:44:35;0.00;99.90
10848;DHT22;5477;48.806;9.154;2023-02-15T02:47:13;0.00;99.90
10848;DHT22;5477;48.806;9.154;2023-02-15T02:49:45;0.10;99.90
10848;DHT22;5477;48.806;9.154;2023-02-15T02:52:41;0.10;99.90
10848;DHT22;5477;48.806;9.154;2023-02-15T02:55:13;0.20;99.90
10848;DHT22;5477;48.806;9.154;2023-02-15T02:57:48;0.30;99.90
10848;DHT22;5477;48.806;9.154;2023-02-15T03:00:19;0.30;99.90
10848;DHT22;5477;48.806;9.154;2023-02-15T03:02:52;0.30;99.90
10848;DHT22;5477;48.806;9.154;2023-02-15T03:05:24;0.30;99.90
10848;DHT22;5477;48.806;9.154;2023-02-15T03:07:55;0.20;99.90
10848;DHT22;5477;48.806;9.154;2023-02-15T03:10:25;0.20;99.90
10848;DHT22;5477;48.806;9.154;2023-02-15T03:12:53;0.20;99.90
10848;DHT22;5477;48.806;9.154;2023-02-15T03:15:24;0.30;99.90
10848;DHT22;5477;48.806;9.154;2023-02-15T03:17:57;0.30;99.90
10848;DHT22;5477;48.806;9.154;2023-02-15T03:20:30;0.20;99.90
10848;DHT22;5477;48.806;9.154;2023-02-15T03:23:02;0.30;99.90
10848;DHT22;5477;48.806;9.154;2023-02-15T03:25:34;0.20;99.90
10848;DHT22;5477;48.806;9.154;2023-02-15T03:28:07;0.20;99.90
10848;DHT22;5477;48.806;9.154;2023-02-15T03:30:37;0.30;99.90
10848;DHT22;5477;48.806;9.154;2023-02-15T03:33:07;0.10;99.90
10848;DHT22;5477;48.806;9.154;2023-02-15T03:35:43;0.10;99.90
10848;DHT22;5477;48.806;9.154;2023-02-15T03:38:17;0.10;99.90
10848;DHT22;5477;48.806;9.154;2023-02-15T03:40:48;0.00;99.90
10848;DHT22;5477;48.806;9.154;2023-02-15T03:43:40;-0.10;99.90
10848;DHT22;5477;48.806;9.154;2023-02-15T03:46:13;-0.10;99.90
10848;DHT22;5477;48.806;9.154;2023-02-15T03:48:46;-0.10;99.90
10848;DHT22;5477;48.806;9.154;2023-02-15T03:51:19;-0.10;99.90
10848;DHT22;5477;48.806;9.154;2023-02-15T03:54:07;-0.10;99.90
10848;DHT22;5477;48.806;9.154;2023-02-15T03:56:38;-0.10;99.90
10848;DHT22;5477;48.806;9.154;2023-02-15T03:59:07;-0.10;99.90
10848;DHT22;5477;48.806;9.154;2023-02-15T04:02:02;0.00;99.90
10848;DHT22;5477;48.806;9.154;2023-02-15T04:04:35;0.00;99.90
10848;DHT22;5477;48.806;9.154;2023-02-15T04:07:06;0.10;99.90
10848;DHT22;5477;48.806;9.154;2023-02-15T04:09:35;0.10;99.90
10848;DHT22;5477;48.806;9.154;2023-02-15T04:12:20;0.00;99.90
10848;DHT22;5477;48.806;9.154;2023-02-15T04:14:48;0.00;99.90
10848;DHT22;5477;48.806;9.154;2023-02-15T04:17:35;0.20;99.90
10848;DHT22;5477;48.806;9.154;2023-02-15T04:20:04;0.20;99.90
10848;DHT22;5477;48.806;9.154;2023-02-15T04:22:51;0.20;99.90
10848;DHT22;5477;48.806;9.154;2023-02-15T04:25:37;0.10;99.90
10848;DHT22;5477;48.806;9.154;2023-02-15T04:28:05;0.10;99.90
10848;DHT22;5477;48.806;9.154;2023-02-15T04:30:34;0.10;99.90
10848;DHT22;5477;48.806;9.154;2023-02-15T04:33:02;0.10;99.90
10848;DHT22;5477;48.806;9.154;2023-02-15T04:35:30;0.10;99.90
10848;DHT22;5477;48.806;9.154;2023-02-15T04:38:00;0.00;99.90
10848;DHT22;5477;48.806;9.154;2023-02-15T04:40:28;-0.10;99.90
10848;DHT22;5477;48.806;9.154;2023-02-15T04:42:56;-0.20;99.90
10848;DHT22;5477;48.806;9.154;2023-02-15T04:45:27;-0.30;99.90
10848;DHT22;5477;48.806;9.154;2023-02-15T04:47:55;-0.40;99.90
10848;DHT22;5477;48.806;9.154;2023-02-15T04:50:23;-0.50;99.90
10848;DHT22;5477;48.806;9.154;2023-02-15T04:52:51;-0.60;99.90
10848;DHT22;5477;48.806;9.154;2023-02-15T04:55:20;-0.60;99.90
10848;DHT22;5477;48.806;9.154;2023-02-15T04:57:48;-0.70;99.90
10848;DHT22;5477;48.806;9.154;2023-02-15T05:00:19;-0.70;99.90
10848;DHT22;5477;48.806;9.154;2023-02-15T05:02:50;-0.70;99.90
10848;DHT22;5477;48.806;9.154;2023-02-15T05:05:18;-0.70;99.90
10848;DHT22;5477;48.806;9.154;2023-02-15T05:07:46;-0.70;99.90
10848;DHT22;5477;48.806;9.154;2023-02-15T05:10:14;-0.60;99.90
10848;DHT22;5477;48.806;9.154;2023-02-15T05:12:43;-0.60;99.90
10848;DHT22;5477;48.806;9.154;2023-02-15T05:15:12;-0.60;99.90
10848;DHT22;5477;48.806;9.154;2023-02-15T05:17:40;-0.60;99.90
10848;DHT22;5477;48.806;9.154;2023-02-15T05:20:08;-0.60;99.90
10848;DHT22;5477;48.806;9.154;2023-02-15T05:22:36;-0.50;99.90
10848;DHT22;5477;48.806;9.154;2023-02-15T05:25:04;-0.50;99.90
10848;DHT22;5477;48.806;9.154;2023-02-15T05:27:51;-0.60;99.90
10848;DHT22;5477;48.806;9.154;2023-02-15T05:30:36;-0.50;99.90
10848;DHT22;5477;48.806;9.154;2023-02-15T05:33:06;-0.30;99.90
10848;DHT22;5477;48.806;9.154;2023-02-15T05:35:34;-0.30;99.90
10848;DHT22;5477;48.806;9.154;2023-02-15T05:38:02;-0.40;99.90
10848;DHT22;5477;48.806;9.154;2023-02-15T05:40:30;-0.40;99.90
10848;DHT22;5477;48.806;9.154;2023-02-15T05:43:00;-0.50;99.90
10848;DHT22;5477;48.806;9.154;2023-02-15T05:45:28;-0.40;99.90
10848;DHT22;5477;48.806;9.154;2023-02-15T05:47:55;-0.40;99.90
10848;DHT22;5477;48.806;9.154;2023-02-15T05:50:25;-0.40;99.90
10848;DHT22;5477;48.806;9.154;2023-02-15T05:52:53;-0.50;99.90
10848;DHT22;5477;48.806;9.154;2023-02-15T05:55:21;-0.60;99.90
10848;DHT22;5477;48.806;9.154;2023-02-15T05:57:49;-0.70;99.90
10848;DHT22;5477;48.806;9.154;2023-02-15T06:00:18;-0.70;99.90
10848;DHT22;5477;48.806;9.154;2023-02-15T06:02:46;-0.70;99.90
10848;DHT22;5477;48.806;9.154;2023-02-15T06:05:14;-0.50;99.90
10848;DHT22;5477;48.806;9.154;2023-02-15T06:07:43;-0.40;99.90
10848;DHT22;5477;48.806;9.154;2023-02-15T06:10:11;-0.40;99.90
10848;DHT22;5477;48.806;9.154;2023-02-15T06:12:39;-0.40;99.90
10848;DHT22;5477;48.806;9.154;2023-02-15T06:15:08;-0.50;99.90
10848;DHT22;5477;48.806;9.154;2023-02-15T06:17:37;-0.70;99.90
10848;DHT22;5477;48.806;9.154;2023-02-15T06:20:06;-0.80;99.90
10848;DHT22;5477;48.806;9.154;2023-02-15T06:22:34;-0.90;99.90
10848;DHT22;5477;48.806;9.154;2023-02-15T06:25:03;-1.00;99.90
10848;DHT22;5477;48.806;9.154;2023-02-15T06:27:32;-1.10;99.90
10848;DHT22;5477;48.806;9.154;2023-02-15T06:30:00;-1.10;99.90
10848;DHT22;5477;48.806;9.154;2023-02-15T06:32:28;-1.10;99.90
10848;DHT22;5477;48.806;9.154;2023-02-15T06:34:58;-1.10;99.90
10848;DHT22;5477;48.806;9.154;2023-02-15T06:37:25;-1.00;99.90
10848;DHT22;5477;48.806;9.154;2023-02-15T06:39:53;-1.10;99.90
10848;DHT22;5477;48.806;9.154;2023-02-15T06:42:22;-1.10;99.90
10848;DHT22;5477;48.806;9.154;2023-02-15T06:44:50;-1.20;99.90
10848;DHT22;5477;48.806;9.154;2023-02-15T06:47:18;-1.30;99.90
10848;DHT22;5477;48.806;9.154;2023-02-15T06:49:45;-1.20;99.90
10848;DHT22;5477;48.806;9.154;2023-02-15T06:52:15;-1.20;99.90
10848;DHT22;5477;48.806;9.154;2023-02-15T06:54:43;-1.10;99.90
10848;DHT22;5477;48.806;9.154;2023-02-15T06:57:11;-1.10;99.90
10848;DHT22;5477;48.806;9.154;2023-02-15T06:59:39;-1.10;99.90
10848;DHT22;5477;48.806;9.154;2023-02-15T07:02:08;-1.20;99.90
10848;DHT22;5477;48.806;9.154;2023-02-15T07:04:36;-1.10;99.90
10848;DHT22;5477;48.806;9.154;2023-02-15T07:07:07;-1.10;99.90
10848;DHT22;5477;48.806;9.154;2023-02-15T07:09:37;-1.00;99.90
10848;DHT22;5477;48.806;9.154;2023-02-15T07:12:05;-0.90;99.90
10848;DHT22;5477;48.806;9.154;2023-02-15T07:14:51;-0.80;99.90
10848;DHT22;5477;48.806;9.154;2023-02-15T07:17:18;-0.60;99.90
10848;DHT22;5477;48.806;9.154;2023-02-15T07:20:02;-0.40;99.90
10848;DHT22;5477;48.806;9.154;2023-02-15T07:22:30;-0.30;99.90
10848;DHT22;5477;48.806;9.154;2023-02-15T07:24:59;-0.20;99.90
10848;DHT22;5477;48.806;9.154;2023-02-15T07:27:27;-0.20;99.90
10848;DHT22;5477;48.806;9.154;2023-02-15T07:29:55;-0.20;99.90
10848;DHT22;5477;48.806;9.154;2023-02-15T07:32:23;-0.10;99.90
10848;DHT22;5477;48.806;9.154;2023-02-15T07:34:51;0.00;99.90
10848;DHT22;5477;48.806;9.154;2023-02-15T07:37:19;0.00;99.90
10848;DHT22;5477;48.806;9.154;2023-02-15T07:39:47;0.10;99.90
10848;DHT22;5477;48.806;9.154;2023-02-15T07:42:16;0.10;99.90
10848;DHT22;5477;48.806;9.154;2023-02-15T07:44:46;0.10;99.90
10848;DHT22;5477;48.806;9.154;2023-02-15T07:47:14;0.20;99.90
10848;DHT22;5477;48.806;9.154;2023-02-15T07:49:42;0.20;99.90
10848;DHT22;5477;48.806;9.154;2023-02-15T07:52:10;0.20;99.90
10848;DHT22;5477;48.806;9.154;2023-02-15T07:54:38;0.10;99.90
10848;DHT22;5477;48.806;9.154;2023-02-15T07:57:06;0.10;99.90
10848;DHT22;5477;48.806;9.154;2023-02-15T07:59:35;0.20;99.90
10848;DHT22;5477;48.806;9.154;2023-02-15T08:02:05;0.30;99.90
10848;DHT22;5477;48.806;9.154;2023-02-15T08:04:33;0.50;99.90
10848;DHT22;5477;48.806;9.154;2023-02-15T08:07:01;0.60;99.90
10848;DHT22;5477;48.806;9.154;2023-02-15T08:09:30;0.50;99.90
10848;DHT22;5477;48.806;9.154;2023-02-15T08:11:58;0.30;99.90
10848;DHT22;5477;48.806;9.154;2023-02-15T08:14:27;0.30;99.90
10848;DHT22;5477;48.806;9.154;2023-02-15T08:16:59;0.20;99.90
10848;DHT22;5477;48.806;9.154;2023-02-15T08:19:31;0.20;99.90
10848;DHT22;5477;48.806;9.154;2023-02-15T08:22:01;0.10;99.90
10848;DHT22;5477;48.806;9.154;2023-02-15T08:24:31;0.10;99.90
10848;DHT22;5477;48.806;9.154;2023-02-15T08:26:59;0.30;99.90
10848;DHT22;5477;48.806;9.154;2023-02-15T08:29:33;0.50;99.90
10848;DHT22;5477;48.806;9.154;2023-02-15T08:32:04;0.60;99.90
10848;DHT22;5477;48.806;9.154;2023-02-15T08:34:34;0.80;99.90
10848;DHT22;5477;48.806;9.154;2023-02-15T08:37:03;0.80;99.90
10848;DHT22;5477;48.806;9.154;2023-02-15T08:39:32;0.80;99.90
10848;DHT22;5477;48.806;9.154;2023-02-15T08:42:01;0.90;99.90
10848;DHT22;5477;48.806;9.154;2023-02-15T08:44:29;1.00;99.90
10848;DHT22;5477;48.806;9.154;2023-02-15T08:46:56;1.20;99.90
10848;DHT22;5477;48.806;9.154;2023-02-15T08:49:30;1.00;99.90
10848;DHT22;5477;48.806;9.154;2023-02-15T08:51:58;1.00;99.90
10848;DHT22;5477;48.806;9.154;2023-02-15T08:54:27;1.10;99.90
10848;DHT22;5477;48.806;9.154;2023-02-15T08:57:04;1.20;99.90
10848;DHT22;5477;48.806;9.154;2023-02-15T08:59:33;1.30;99.90
10848;DHT22;5477;48.806;9.154;2023-02-15T09:02:01;1.30;99.90
10848;DHT22;5477;48.806;9.154;2023-02-15T09:04:31;1.40;99.90
10848;DHT22;5477;48.806;9.154;2023-02-15T09:06:59;1.40;99.90
10848;DHT22;5477;48.806;9.154;2023-02-15T09:09:28;1.40;99.90
10848;DHT22;5477;48.806;9.154;2023-02-15T09:11:57;1.40;99.90
10848;DHT22;5477;48.806;9.154;2023-02-15T09:14:26;1.50;99.90
10848;DHT22;5477;48.806;9.154;2023-02-15T09:16:54;1.70;99.90
10848;DHT22;5477;48.806;9.154;2023-02-15T09:19:23;1.90;99.90
10848;DHT22;5477;48.806;9.154;2023-02-15T09:21:52;2.00;99.90
10848;DHT22;5477;48.806;9.154;2023-02-15T09:24:21;2.10;99.90
10848;DHT22;5477;48.806;9.154;2023-02-15T09:26:49;2.20;99.90
10848;DHT22;5477;48.806;9.154;2023-02-15T09:29:18;2.20;99.90
10848;DHT22;5477;48.806;9.154;2023-02-15T09:31:48;2.20;99.90
10848;DHT22;5477;48.806;9.154;2023-02-15T09:34:19;2.30;99.90
10848;DHT22;5477;48.806;9.154;2023-02-15T09:36:48;2.40;99.90
10848;DHT22;5477;48.806;9.154;2023-02-15T09:39:19;2.60;99.90
10848;DHT22;5477;48.806;9.154;2023-02-15T09:42:22;2.80;99.90
10848;DHT22;5477;48.806;9.154;2023-02-15T09:48:03;3.10;99.90
10848;DHT22;5477;48.806;9.154;2023-02-15T09:50:39;3.50;99.90
10848;DHT22;5477;48.806;9.154;2023-02-15T09:53:23;3.60;99.90
10848;DHT22;5477;48.806;9.154;2023-02-15T09:56:04;3.90;99.90
10848;DHT22;5477;48.806;9.154;2023-02-15T09:58:40;4.10;99.90
10848;DHT22;5477;48.806;9.154;2023-02-15T10:01:17;4.40;99.90
10848;DHT22;5477;48.806;9.154;2023-02-15T10:04:00;4.60;99.90
10848;DHT22;5477;48.806;9.154;2023-02-15T10:06:36;4.70;99.90
10848;DHT22;5477;48.806;9.154;2023-02-15T10:09:26;4.80;99.90
10848;DHT22;5477;48.806;9.154;2023-02-15T10:12:19;5.00;99.90
10848;DHT22;5477;48.806;9.154;2023-02-15T10:15:09;5.30;99.90
10848;DHT22;5477;48.806;9.154;2023-02-15T10:17:51;5.80;99.90
10848;DHT22;5477;48.806;9.154;2023-02-15T10:20:28;5.90;99.90
10848;DHT22;5477;48.806;9.154;2023-02-15T10:23:10;6.20;99.90
10848;DHT22;5477;48.806;9.154;2023-02-15T10:25:46;6.60;99.90
10848;DHT22;5477;48.806;9.154;2023-02-15T10:28:18;7.00;99.90
10848;DHT22;5477;48.806;9.154;2023-02-15T10:30:48;7.50;99.90
10848;DHT22;5477;48.806;9.154;2023-02-15T10:33:30;7.80;99.90
10848;DHT22;5477;48.806;9.154;2023-02-15T10:36:12;8.10;99.90
10848;DHT22;5477;48.806;9.154;2023-02-15T10:38:47;8.50;99.90
10848;DHT22;5477;48.806;9.154;2023-02-15T10:41:27;8.60;99.90
10848;DHT22;5477;48.806;9.154;2023-02-15T10:44:15;8.90;99.90
10848;DHT22;5477;48.806;9.154;2023-02-15T10:47:22;9.00;99.90
10848;DHT22;5477;48.806;9.154;2023-02-15T10:50:09;9.30;99.90
10848;DHT22;5477;48.806;9.154;2023-02-15T10:52:50;9.70;99.90
10848;DHT22;5477;48.806;9.154;2023-02-15T10:55:29;10.00;99.90
10848;DHT22;5477;48.806;9.154;2023-02-15T10:58:09;10.10;99.90
10848;DHT22;5477;48.806;9.154;2023-02-15T11:00:44;10.60;99.90
10848;DHT22;5477;48.806;9.154;2023-02-15T11:03:32;11.20;99.90
10848;DHT22;5477;48.806;9.154;2023-02-15T11:06:05;11.60;99.90
10848;DHT22;5477;48.806;9.154;2023-02-15T11:08:40;11.80;99.90
10848;DHT22;5477;48.806;9.154;2023-02-15T11:11:12;12.00;99.90
10848;DHT22;5477;48.806;9.154;2023-02-15T11:13:46;12.10;99.70
10848;DHT22;5477;48.806;9.154;2023-02-15T11:16:18;12.60;98.60
10848;DHT22;5477;48.806;9.154;2023-02-15T11:18:53;12.50;98.40
10848;DHT22;5477;48.806;9.154;2023-02-15T11:21:26;12.60;98.30
10848;DHT22;5477;48.806;9.154;2023-02-15T11:23:55;12.90;97.90
10848;DHT22;5477;48.806;9.154;2023-02-15T11:26:29;12.90;97.30
10848;DHT22;5477;48.806;9.154;2023-02-15T11:29:05;12.80;97.50
10848;DHT22;5477;48.806;9.154;2023-02-15T11:31:42;13.00;97.60
10848;DHT22;5477;48.806;9.154;2023-02-15T11:34:15;13.60;96.80
10848;DHT22;5477;48.806;9.154;2023-02-15T11:36:46;14.00;96.20
10848;DHT22;5477;48.806;9.154;2023-02-15T11:39:17;14.00;95.50
10848;DHT22;5477;48.806;9.154;2023-02-15T11:41:49;13.80;95.70
10848;DHT22;5477;48.806;9.154;2023-02-15T11:44:22;13.70;95.20
10848;DHT22;5477;48.806;9.154;2023-02-15T11:46:52;13.50;96.60
10848;DHT22;5477;48.806;9.154;2023-02-15T11:49:23;13.70;96.70
10848;DHT22;5477;48.806;9.154;2023-02-15T11:51:52;14.10;96.30
10848;DHT22;5477;48.806;9.154;2023-02-15T11:54:26;14.40;96.50
10848;DHT22;5477;48.806;9.154;2023-02-15T11:56:57;14.70;96.20
10848;DHT22;5477;48.806;9.154;2023-02-15T11:59:30;14.00;96.60
10848;DHT22;5477;48.806;9.154;2023-02-15T12:02:01;13.10;98.70
10848;DHT22;5477;48.806;9.154;2023-02-15T12:04:31;13.70;98.00
10848;DHT22;5477;48.806;9.154;2023-02-15T12:07:04;13.40;97.70
10848;DHT22;5477;48.806;9.154;2023-02-15T12:09:45;13.60;98.50
10848;DHT22;5477;48.806;9.154;2023-02-15T12:12:22;14.10;97.60
10848;DHT22;5477;48.806;9.154;2023-02-15T12:14:53;14.30;97.10
10848;DHT22;5477;48.806;9.154;2023-02-15T12:17:24;14.60;97.10
10848;DHT22;5477;48.806;9.154;2023-02-15T12:19:55;15.20;95.70
10848;DHT22;5477;48.806;9.154;2023-02-15T12:22:26;15.40;94.80
10848;DHT22;5477;48.806;9.154;2023-02-15T12:24:56;15.70;94.50
10848;DHT22;5477;48.806;9.154;2023-02-15T12:27:27;16.10;93.60
10848;DHT22;5477;48.806;9.154;2023-02-15T12:30:00;16.20;92.90
10848;DHT22;5477;48.806;9.154;2023-02-15T12:32:34;16.40;92.90
10848;DHT22;5477;48.806;9.154;2023-02-15T12:35:08;16.40;92.50
10848;DHT22;5477;48.806;9.154;2023-02-15T12:37:37;16.50;91.50
10848;DHT22;5477;48.806;9.154;2023-02-15T12:40:19;16.60;91.50
10848;DHT22;5477;48.806;9.154;2023-02-15T12:42:48;16.70;91.10
10848;DHT22;5477;48.806;9.154;2023-02-15T12:45:24;16.70;91.00
10848;DHT22;5477;48.806;9.154;2023-02-15T12:48:15;16.60;90.80
10848;DHT22;5477;48.806;9.154;2023-02-15T12:50:44;16.30;91.20
10848;DHT22;5477;48.806;9.154;2023-02-15T12:53:23;16.00;91.70
10848;DHT22;5477;48.806;9.154;2023-02-15T12:55:59;15.70;91.90
10848;DHT22;5477;48.806;9.154;2023-02-15T12:58:28;15.10;92.60
10848;DHT22;5477;48.806;9.154;2023-02-15T13:01:10;14.50;93.60
10848;DHT22;5477;48.806;9.154;2023-02-15T13:03:54;13.90;94.60
10848;DHT22;5477;48.806;9.154;2023-02-15T13:06:23;13.30;95.60
10848;DHT22;5477;48.806;9.154;2023-02-15T13:08:53;12.90;96.80
10848;DHT22;5477;48.806;9.154;2023-02-15T13:11:25;12.40;97.80
10848;DHT22;5477;48.806;9.154;2023-02-15T13:14:00;12.10;98.80
10848;DHT22;5477;48.806;9.154;2023-02-15T13:16:31;11.80;99.70
10848;DHT22;5477;48.806;9.154;2023-02-15T13:19:05;11.50;99.90
10848;DHT22;5477;48.806;9.154;2023-02-15T13:21:37;11.10;99.90
10848;DHT22;5477;48.806;9.154;2023-02-15T13:24:16;11.00;99.90
10848;DHT22;5477;48.806;9.154;2023-02-15T13:26:47;10.90;99.90
10848;DHT22;5477;48.806;9.154;2023-02-15T13:29:19;10.90;99.90
10848;DHT22;5477;48.806;9.154;2023-02-15T13:31:50;10.80;99.90
10848;DHT22;5477;48.806;9.154;2023-02-15T13:34:23;10.90;99.90
10848;DHT22;5477;48.806;9.154;2023-02-15T13:36:57;10.80;99.90
10848;DHT22;5477;48.806;9.154;2023-02-15T13:39:33;10.80;99.90
10848;DHT22;5477;48.806;9.154;2023-02-15T13:42:13;10.60;99.90
10848;DHT22;5477;48.806;9.154;2023-02-15T13:44:56;10.60;99.90
10848;DHT22;5477;48.806;9.154;2023-02-15T13:47:32;10.60;99.90
10848;DHT22;5477;48.806;9.154;2023-02-15T13:50:16;10.70;99.90
10848;DHT22;5477;48.806;9.154;2023-02-15T13:52:51;10.70;99.90
10848;DHT22;5477;48.806;9.154;2023-02-15T13:55:28;10.70;99.90
10848;DHT22;5477;48.806;9.154;2023-02-15T13:58:29;10.60;99.90
10848;DHT22;5477;48.806;9.154;2023-02-15T14:01:07;10.60;99.90
10848;DHT22;5477;48.806;9.154;2023-02-15T14:07:05;10.60;99.90
10848;DHT22;5477;48.806;9.154;2023-02-15T14:09:46;10.60;99.90
10848;DHT22;5477;48.806;9.154;2023-02-15T14:12:32;10.60;99.90
10848;DHT22;5477;48.806;9.154;2023-02-15T14:15:22;10.60;99.90
10848;DHT22;5477;48.806;9.154;2023-02-15T14:17:59;10.70;99.90
10848;DHT22;5477;48.806;9.154;2023-02-15T14:20:41;10.70;99.90
10848;DHT22;5477;48.806;9.154;2023-02-15T14:23:20;10.70;99.90
10848;DHT22;5477;48.806;9.154;2023-02-15T14:25:57;10.60;99.90
10848;DHT22;5477;48.806;9.154;2023-02-15T14:28:31;10.60;99.90
10848;DHT22;5477;48.806;9.154;2023-02-15T14:31:03;10.60;99.90
10848;DHT22;5477;48.806;9.154;2023-02-15T14:33:37;10.60;99.90
10848;DHT22;5477;48.806;9.154;2023-02-15T14:36:07;10.80;99.90
10848;DHT22;5477;48.806;9.154;2023-02-15T14:38:48;10.90;99.90
10848;DHT22;5477;48.806;9.154;2023-02-15T14:41:21;10.90;99.90
10848;DHT22;5477;48.806;9.154;2023-02-15T14:43:54;10.90;99.90
10848;DHT22;5477;48.806;9.154;2023-02-15T14:46:30;10.90;99.90
10848;DHT22;5477;48.806;9.154;2023-02-15T14:49:06;10.90;99.90
10848;DHT22;5477;48.806;9.154;2023-02-15T14:51:55;11.00;99.90
10848;DHT22;5477;48.806;9.154;2023-02-15T14:54:58;11.10;99.90
10848;DHT22;5477;48.806;9.154;2023-02-15T14:57:36;11.60;99.90
10848;DHT22;5477;48.806;9.154;2023-02-15T15:00:33;12.40;99.90
10848;DHT22;5477;48.806;9.154;2023-02-15T15:03:20;12.90;99.50
10848;DHT22;5477;48.806;9.154;2023-02-15T15:05:52;13.00;98.90
10848;DHT22;5477;48.806;9.154;2023-02-15T15:08:25;13.10;98.70
10848;DHT22;5477;48.806;9.154;2023-02-15T15:10:56;13.50;98.30
10848;DHT22;5477;48.806;9.154;2023-02-15T15:13:38;13.70;97.40
10848;DHT22;5477;48.806;9.154;2023-02-15T15:16:28;14.70;96.50
10848;DHT22;5477;48.806;9.154;2023-02-15T15:18:58;15.50;94.80
10848;DHT22;5477;48.806;9.154;2023-02-15T15:21:54;16.10;92.40
10848;DHT22;5477;48.806;9.154;2023-02-15T15:24:48;16.70;90.70
10848;DHT22;5477;48.806;9.154;2023-02-15T15:27:42;17.10;89.00
10848;DHT22;5477;48.806;9.154;2023-02-15T15:34:01;17.90;84.00
10848;DHT22;5477;48.806;9.154;2023-02-15T15:36:54;17.80;80.70
10848;DHT22;5477;48.806;9.154;2023-02-15T15:42:31;16.10;83.50
10848;DHT22;5477;48.806;9.154;2023-02-15T15:45:24;15.40;85.90
10848;DHT22;5477;48.806;9.154;2023-02-15T15:48:01;14.80;87.40
10848;DHT22;5477;48.806;9.154;2023-02-15T15:50:34;14.30;89.60
10848;DHT22;5477;48.806;9.154;2023-02-15T15:53:06;13.90;90.50
10848;DHT22;5477;48.806;9.154;2023-02-15T15:55:43;13.50;91.50
10848;DHT22;5477;48.806;9.154;2023-02-15T15:58:16;13.10;92.40
10848;DHT22;5477;48.806;9.154;2023-02-15T16:00:50;12.70;94.20
10848;DHT22;5477;48.806;9.154;2023-02-15T16:03:21;12.40;95.40
10848;DHT22;5477;48.806;9.154;2023-02-15T16:05:50;12.10;96.70
10848;DHT22;5477;48.806;9.154;2023-02-15T16:08:30;11.90;97.40
10848;DHT22;5477;48.806;9.154;2023-02-15T16:10:58;11.60;98.50
10848;DHT22;5477;48.806;9.154;2023-02-15T16:13:26;11.40;99.50
10848;DHT22;5477;48.806;9.154;2023-02-15T16:15:56;11.20;99.90
10848;DHT22;5477;48.806;9.154;2023-02-15T16:18:26;11.10;99.90
10848;DHT22;5477;48.806;9.154;2023-02-15T16:20:56;11.00;99.90
10848;DHT22;5477;48.806;9.154;2023-02-15T16:23:49;10.80;99.90
10848;DHT22;5477;48.806;9.154;2023-02-15T16:26:31;10.70;99.90
10848;DHT22;5477;48.806;9.154;2023-02-15T16:29:14;10.50;99.90
10848;DHT22;5477;48.806;9.154;2023-02-15T16:31:43;10.30;99.90
10848;DHT22;5477;48.806;9.154;2023-02-15T16:34:23;10.10;99.90
10848;DHT22;5477;48.806;9.154;2023-02-15T16:37:12;10.00;99.90
10848;DHT22;5477;48.806;9.154;2023-02-15T16:39:42;9.80;99.90
10848;DHT22;5477;48.806;9.154;2023-02-15T16:42:11;9.60;99.90
10848;DHT22;5477;48.806;9.154;2023-02-15T16:44:41;9.30;99.90
10848;DHT22;5477;48.806;9.154;2023-02-15T16:47:16;9.10;99.90